Douglas, Kentucky
Current Conditions -  °F | °C
As of 10:35 AM on Saturday 22 Nov 2014 (Local Time) from KPBX Reporting Station
Clear Clear  
Wind Chill: 44°   Ceiling: Unl
Heat Index: 47°   Visibility: 10mi
Dew Point: 20°   Wind: 7mph
Humidity: 35%   Direction: 160°SSE
Pressure: 30.35"   Gusts: NA
Location:  37.2935°N, 82.5763°W
Report Text: KPBX 221535Z AUTO 16006KT 10SM CLR 08/M06 A3035 RMK AO2 T00841064
Loading
Personal Weather Stations






























Interactive Weather Map New forecast layout! Learn more

10-Day Weather Forecast

Advertisements
Track Severe Weather on mobile